Borja — ICEC — position and weather

sailwx.info

Track history (hours):
 
Tides and Currents Weather Stations Pressure Air Temp Water Temp Dewpoint Dewpoint Depression Visibility Wind Speed Wind Dir Waves Ship Positions

Borja

Last reported at 2014-Jul-24 11:05 UTC. Time now 2014-Jul-24 13:05 UTC.
Position N 47°13' W 002°16'.

Length 186 m; draft 6.4 m.

Type: Ship. MMSI: 247196400.

Date/timePositionNaut miles runAvg speedWind from/ knotsBaromVisibWave heightAir tempDewpointWater temp
2014-Jul-24 11:05N 47°13' W 002°16'2818.6
2014-Jul-24 09:34N 46°53' W 002°45'2020.1
2014-Jul-24 08:34N 46°36' W 003°01'1919.3
2014-Jul-24 07:33N 46°19' W 003°15'9919.5
2014-Jul-24 02:28N 44°55' W 004°30'1919.7
2014-Jul-24 01:29N 44°38' W 004°44'1920.0
2014-Jul-24 00:33N 44°22' W 004°58'2420.1
2014-Jul-23 23:21N 44°02' W 005°15'1620.0
2014-Jul-23 22:33N 43°48' W 005°27'18 2.8
2014-Jul-23 16:07N 43°34' W 005°41'712.2
2014-Jul-23 15:32N 43°41' W 005°40'7322.1
2014-Jul-23 12:13N 44°54' W 005°37'17322.0
2014-Jul-23 04:23N 47°46' W 005°28'4622.1
2014-Jul-23 02:17N 48°32' W 005°22'1621.3
2014-Jul-23 01:32N 48°44' W 005°06'2021.1
2014-Jul-23 00:33N 48°59' W 004°43'2221.5
2014-Jul-22 23:33N 49°14' W 004°20'12621.1
2014-Jul-22 17:33N 50°39' W 001°55'5 0.6
2014-Jul-22 09:33N 50°42' W 001°59'7 7.2
2014-Jul-22 08:33N 50°36' W 001°54'17111.9
2014-Jul-21 18:13N 48°41' W 005°10'2713.0
2014-Jul-21 16:06N 48°15' W 005°20'912.5
2014-Jul-21 15:24N 48°06' W 005°19'1112.0
2014-Jul-21 14:31N 47°56' W 005°14'1311.5
2014-Jul-21 13:22N 47°43' W 005°10'11 0.3
2014-Jul-20 02:05N 47°53' W 005°14'1820.5
2014-Jul-20 01:11N 48°11' W 005°20'19920.7
2014-Jul-19 15:33N 50°39' W 001°55'4 2.1
2014-Jul-19 13:32N 50°42' W 001°59'0 0.0
2014-Jul-19 12:32N 50°42' W 001°59'1 1.3
2014-Jul-19 11:33N 50°42' W 001°58'17819.5
2014-Jul-19 02:25N 48°38' W 005°15'2519.6
2014-Jul-19 01:08N 48°14' W 005°27'25621.7
2014-Jul-18 13:19N 43°57' W 005°39'1722.3
2014-Jul-18 12:33N 43°40' W 005°40'7 2.3
2014-Jul-18 09:28N 43°33' W 005°41'0 0.0
2014-Jul-18 08:33N 43°33' W 005°41'0 0.1
2014-Jul-18 07:33N 43°34' W 005°41'1111.3
2014-Jul-18 06:33N 43°43' W 005°32'7418.4
2014-Jul-18 02:33N 44°45' W 004°38'8921.7
2014-Jul-17 22:27N 46°01' W 003°32'2022.1
2014-Jul-17 21:32N 46°18' W 003°17'2222.0
2014-Jul-17 20:33N 46°37' W 003°01'2221.5
2014-Jul-17 19:33N 46°55' W 002°44'1919.2
2014-Jul-17 18:33N 47°07' W 002°22'1311.5
2014-Jul-17 17:24N 47°18' W 002°10'31 3.9
2014-Jul-17 09:28N 46°56' W 002°43'1920.6
2014-Jul-17 08:34N 46°40' W 002°57'2220.9
2014-Jul-17 07:30N 46°21' W 003°14'2020.8
2014-Jul-17 06:33N 46°05' W 003°29'2321.3
2014-Jul-17 05:29N 45°45' W 003°46'2021.4
2014-Jul-17 04:33N 45°28' W 004°01'2721.5
2014-Jul-17 03:17N 45°05' W 004°21'1721.3
2014-Jul-17 02:30N 44°51' W 004°33'2021.6
2014-Jul-17 01:33N 44°33' W 004°49'4421.2
2014-Jul-16 23:28N 43°56' W 005°21'2021.3
2014-Jul-16 22:33N 43°39' W 005°34'8 1.3
2014-Jul-16 16:34N 43°33' W 005°41'1514.7
2014-Jul-16 15:33N 43°48' W 005°40'39520.5
2014-Jul-15 20:14N 50°07' W 002°56'1720.7
2014-Jul-15 19:25N 50°16' W 002°33'1921.8
2014-Jul-15 18:34N 50°25' W 002°08'1716.9
2014-Jul-15 17:34N 50°40' W 001°56'3 2.7
2014-Jul-15 16:29N 50°42' W 001°59'0 0.0
2014-Jul-15 15:32N 50°42' W 001°59'0 0.0
2014-Jul-15 14:26N 50°42' W 001°59'0 0.0
2014-Jul-15 13:29N 50°42' W 001°59'0 0.0
2014-Jul-15 12:11N 50°42' W 001°59'0 0.0
2014-Jul-15 11:26N 50°42' W 001°59'0 0.1
2014-Jul-15 10:34N 50°42' W 001°60'5 5.1
2014-Jul-15 09:33N 50°40' W 001°53'0 0.0
2014-Jul-15 08:33N 50°40' W 001°52'0 0.0
2014-Jul-15 07:33N 50°40' W 001°52'0 0.0
2014-Jul-15 06:33N 50°40' W 001°52'0 0.0
2014-Jul-15 05:33N 50°40' W 001°53'0 0.1
2014-Jul-15 04:33N 50°40' W 001°53'0 0.0
2014-Jul-15 03:33N 50°40' W 001°53'0 0.1
2014-Jul-15 02:33N 50°40' W 001°53'0 0.0
2014-Jul-15 01:33N 50°40' W 001°52'5 4.0
2014-Jul-15 00:16N 50°42' W 001°59'0 0.0
2014-Jul-14 23:28N 50°42' W 001°59'0 0.1
2014-Jul-14 22:33N 50°42' W 001°59'5 5.5
2014-Jul-14 21:33N 50°38' W 001°54'19819.4
2014-Jul-14 11:21N 48°13' W 005°21'  
Track history (hours):
 
Tides and Currents Weather Stations Pressure Air Temp Water Temp Dewpoint Dewpoint Depression Visibility Wind Speed Wind Dir Waves Ship Positions

Borja

Last reported at 2014-Jul-24 11:05 UTC. Time now 2014-Jul-24 13:05 UTC.
Position N 47°13' W 002°16'.

Length 186 m; draft 6.4 m.

Type: Ship. MMSI: 247196400.

Date/timePositionNaut miles runAvg speedWind from/ knotsBaromVisibWave heightAir tempDewpointWater temp
2014-Jul-24 11:05N 47°13' W 002°16'2818.6
2014-Jul-24 09:34N 46°53' W 002°45'2020.1
2014-Jul-24 08:34N 46°36' W 003°01'1919.3
2014-Jul-24 07:33N 46°19' W 003°15'9919.5
2014-Jul-24 02:28N 44°55' W 004°30'1919.7
2014-Jul-24 01:29N 44°38' W 004°44'1920.0
2014-Jul-24 00:33N 44°22' W 004°58'2420.1
2014-Jul-23 23:21N 44°02' W 005°15'1620.0
2014-Jul-23 22:33N 43°48' W 005°27'18 2.8
2014-Jul-23 16:07N 43°34' W 005°41'712.2
2014-Jul-23 15:32N 43°41' W 005°40'7322.1
2014-Jul-23 12:13N 44°54' W 005°37'17322.0
2014-Jul-23 04:23N 47°46' W 005°28'4622.1
2014-Jul-23 02:17N 48°32' W 005°22'1621.3
2014-Jul-23 01:32N 48°44' W 005°06'2021.1
2014-Jul-23 00:33N 48°59' W 004°43'2221.5
2014-Jul-22 23:33N 49°14' W 004°20'12621.1
2014-Jul-22 17:33N 50°39' W 001°55'5 0.6
2014-Jul-22 09:33N 50°42' W 001°59'7 7.2
2014-Jul-22 08:33N 50°36' W 001°54'17111.9
2014-Jul-21 18:13N 48°41' W 005°10'2713.0
2014-Jul-21 16:06N 48°15' W 005°20'912.5
2014-Jul-21 15:24N 48°06' W 005°19'1112.0
2014-Jul-21 14:31N 47°56' W 005°14'1311.5
2014-Jul-21 13:22N 47°43' W 005°10'11 0.3
2014-Jul-20 02:05N 47°53' W 005°14'1820.5
2014-Jul-20 01:11N 48°11' W 005°20'19920.7
2014-Jul-19 15:33N 50°39' W 001°55'4 2.1
2014-Jul-19 13:32N 50°42' W 001°59'0 0.0
2014-Jul-19 12:32N 50°42' W 001°59'1 1.3
2014-Jul-19 11:33N 50°42' W 001°58'17819.5
2014-Jul-19 02:25N 48°38' W 005°15'2519.6
2014-Jul-19 01:08N 48°14' W 005°27'25621.7
2014-Jul-18 13:19N 43°57' W 005°39'1722.3
2014-Jul-18 12:33N 43°40' W 005°40'7 2.3
2014-Jul-18 09:28N 43°33' W 005°41'0 0.0
2014-Jul-18 08:33N 43°33' W 005°41'0 0.1
2014-Jul-18 07:33N 43°34' W 005°41'1111.3
2014-Jul-18 06:33N 43°43' W 005°32'7418.4
2014-Jul-18 02:33N 44°45' W 004°38'8921.7
2014-Jul-17 22:27N 46°01' W 003°32'2022.1
2014-Jul-17 21:32N 46°18' W 003°17'2222.0
2014-Jul-17 20:33N 46°37' W 003°01'2221.5
2014-Jul-17 19:33N 46°55' W 002°44'1919.2
2014-Jul-17 18:33N 47°07' W 002°22'1311.5
2014-Jul-17 17:24N 47°18' W 002°10'31 3.9
2014-Jul-17 09:28N 46°56' W 002°43'1920.6
2014-Jul-17 08:34N 46°40' W 002°57'2220.9
2014-Jul-17 07:30N 46°21' W 003°14'2020.8
2014-Jul-17 06:33N 46°05' W 003°29'2321.3
2014-Jul-17 05:29N 45°45' W 003°46'2021.4
2014-Jul-17 04:33N 45°28' W 004°01'2721.5
2014-Jul-17 03:17N 45°05' W 004°21'1721.3
2014-Jul-17 02:30N 44°51' W 004°33'2021.6
2014-Jul-17 01:33N 44°33' W 004°49'4421.2
2014-Jul-16 23:28N 43°56' W 005°21'2021.3
2014-Jul-16 22:33N 43°39' W 005°34'8 1.3
2014-Jul-16 16:34N 43°33' W 005°41'1514.7
2014-Jul-16 15:33N 43°48' W 005°40'39520.5
2014-Jul-15 20:14N 50°07' W 002°56'1720.7
2014-Jul-15 19:25N 50°16' W 002°33'1921.8
2014-Jul-15 18:34N 50°25' W 002°08'1716.9
2014-Jul-15 17:34N 50°40' W 001°56'3 2.7
2014-Jul-15 16:29N 50°42' W 001°59'0 0.0
2014-Jul-15 15:32N 50°42' W 001°59'0 0.0
2014-Jul-15 14:26N 50°42' W 001°59'0 0.0
2014-Jul-15 13:29N 50°42' W 001°59'0 0.0
2014-Jul-15 12:11N 50°42' W 001°59'0 0.0
2014-Jul-15 11:26N 50°42' W 001°59'0 0.1
2014-Jul-15 10:34N 50°42' W 001°60'5 5.1
2014-Jul-15 09:33N 50°40' W 001°53'0 0.0
2014-Jul-15 08:33N 50°40' W 001°52'0 0.0
2014-Jul-15 07:33N 50°40' W 001°52'0 0.0
2014-Jul-15 06:33N 50°40' W 001°52'0 0.0
2014-Jul-15 05:33N 50°40' W 001°53'0 0.1
2014-Jul-15 04:33N 50°40' W 001°53'0 0.0
2014-Jul-15 03:33N 50°40' W 001°53'0 0.1
2014-Jul-15 02:33N 50°40' W 001°53'0 0.0
2014-Jul-15 01:33N 50°40' W 001°52'5 4.0
2014-Jul-15 00:16N 50°42' W 001°59'0 0.0
2014-Jul-14 23:28N 50°42' W 001°59'0 0.1
2014-Jul-14 22:33N 50°42' W 001°59'5 5.5
2014-Jul-14 21:33N 50°38' W 001°54'19819.4
2014-Jul-14 11:21N 48°13' W 005°21'  

Dump ship's entire track history